Flight Track Log - Related Links

Times and Time Zones

All times are in EDT time to prevent confusion due to time zone crossing. See the SKW4764 flight status page for this flight to view local times or setup timezone preferences in your user account.

Time Position Orientation Groundspeed Altitude Reporting Facility
EDT Latitude Longitude Course Direction KTS MPH feet Rate Location/Type
Tue 05:34:24 PM 40.7711 -111.9744 50° Northeast 173 199 4,900  Level Salt Lake Center
Tue 05:35:37 PM 40.7525 -112.0544 253° West 247 284 6,900 2,018 Climbing Salt Lake Center
Tue 05:36:14 PM 40.7808 -112.0992 310° West 263 303 8,600 2,889 Climbing Salt Lake Center
Tue 05:36:31 PM 40.7972 -112.1186 318° Northwest 278 320 9,500 2,516 Climbing Salt Lake Center
Tue 05:37:00 PM 41.0272 -112.0895 37° Northeast  Level FlightAware Approximate
Tue 05:37:16 PM 40.8353 -112.1675 316° Northwest 267 307 11,200  Level Salt Lake Center
Tue 05:37:38 PM 40.8572 -112.1944 317° Northwest 277 319 12,200 2,323 Climbing Salt Lake Center
Tue 05:38:00 PM 41.1096 -111.9754 50° Northeast  Level FlightAware Approximate
Tue 05:38:18 PM 40.8981 -112.2269 329° Northwest 290 334 13,600  Level Salt Lake Center
Tue 05:38:39 PM 40.9292 -112.2214 North 291 335 14,700 2,323 Climbing Salt Lake Center
Tue 05:39:00 PM 41.1922 -111.8456 50° Northeast  Level FlightAware Approximate
Tue 05:39:20 PM 40.9667 -112.1800 40° Northeast 287 330 16,000  Level Salt Lake Center
Tue 05:39:40 PM 40.9889 -112.1531 42° Northeast 298 343 16,700 1,161 Climbing Salt Lake Center
Tue 05:40:22 PM 41.0289 -112.0956 47° Northeast 328 377 17,200 1,385 Climbing Salt Lake Center
Tue 05:41:24 PM 41.0956 -112.0017 47° Northeast 345 397 19,100 1,839 Climbing Salt Lake Center
Tue 05:42:26 PM 41.1639 -111.9017 48° Northeast 356 410 21,000 1,548 Climbing Salt Lake Center
Tue 05:43:28 PM 41.2447 -111.8131 39° Northeast 376 433 22,300 968 Climbing Salt Lake Center
Tue 05:44:30 PM 41.3397 -111.7439 29° Northeast 385 443 23,000 339 Climbing Salt Lake Center
Tue 05:45:32 PM 41.4556 -111.6417 33° Northeast 430 495 23,000  Level Salt Lake Center
Tue 05:46:34 PM 41.5292 -111.5244 50° Northeast 413 475 23,000  Level Salt Lake Center
Tue 05:47:36 PM 41.6031 -111.4064 50° Northeast 413 475 23,000  Level Salt Lake Center
Tue 05:48:38 PM 41.6947 -111.3225 34° Northeast 417 480 23,000  Level Salt Lake Center
Tue 05:49:40 PM 41.8042 -111.3156 North 400 460 23,000  Level Salt Lake Center
Tue 05:50:42 PM 41.9103 -111.3294 354° North 398 458 23,000 677 Level Salt Lake Center
Tue 05:51:44 PM 42.0281 -111.3911 339° North 379 436 24,400 1,452 Climbing Salt Lake Center
Tue 05:52:46 PM 42.1258 -111.4400 340° North 380 437 26,000 774 Climbing Salt Lake Center
Tue 05:53:48 PM 42.2283 -111.4931 339° North 389 448 26,000  Level Salt Lake Center
Tue 05:54:50 PM 42.3342 -111.5475 339° North 403 464 26,000  Level Salt Lake Center
Tue 05:55:52 PM 42.4417 -111.6022 339° North 409 471 26,000  Level Salt Lake Center
Tue 05:56:55 PM 42.5472 -111.6567 339° North 410 472 26,000  Level Salt Lake Center
Tue 05:57:56 PM 42.6650 -111.7167 339° North 384 442 26,000  Level Salt Lake Center
Tue 05:58:58 PM 42.7633 -111.7661 340° North 380 437 26,000  Level Salt Lake Center
Tue 06:00:00 PM 42.8608 -111.8186 338° Northwest 380 437 26,000  Level Salt Lake Center
Tue 06:01:02 PM 42.9600 -111.8683 340° North 379 436 26,000  Level Salt Lake Center
Tue 06:02:04 PM 43.0581 -111.9206 339° North 379 436 26,000  Level Salt Lake Center
Tue 06:03:06 PM 43.1542 -111.9717 339° North 377 434 26,000  Level Salt Lake Center
Tue 06:04:07 PM 43.2708 -112.0322 339° North 376 433 26,000  Level Salt Lake Center
Tue 06:05:09 PM 43.3675 -112.0822 339° North 375 432 26,000  Level Salt Lake Center
Tue 06:06:11 PM 43.4656 -112.1364 338° Northwest 376 433 26,000  Level Salt Lake Center
Tue 06:07:13 PM 43.5675 -112.1756 344° North 377 434 26,000  Level Salt Lake Center
Tue 06:08:15 PM 43.6742 -112.1975 352° North 384 442 26,000  Level Salt Lake Center
Tue 06:09:17 PM 43.7794 -112.2250 349° North 386 444 26,000  Level Salt Lake Center
Tue 06:10:19 PM 43.9019 -112.2581 349° North 380 437 26,000  Level Salt Lake Center
Tue 06:11:21 PM 43.9911 -112.2794 350° North 379 436 26,000  Level Salt Lake Center
Tue 06:12:22 PM 44.1122 -112.3119 349° North 382 440 26,000  Level Salt Lake Center
Tue 06:13:24 PM 44.2203 -112.3472 347° North 390 449 26,000  Level Salt Lake Center
Tue 06:14:26 PM 44.3364 -112.3775 349° North 399 459 26,000  Level Salt Lake Center
Tue 06:15:28 PM 44.4558 -112.4089 349° North 410 472 26,000  Level Salt Lake Center
Tue 06:16:30 PM 44.5722 -112.4242 355° North 415 478 26,000  Level Salt Lake Center
Tue 06:17:31 PM 44.7028 -112.3997 North 430 495 26,000  Level Salt Lake Center
Tue 06:18:33 PM 44.8147 -112.4544 341° North 430 495 26,000  Level Salt Lake Center
Tue 06:19:35 PM 44.9222 -112.5319 333° Northwest 429 494 26,000  Level Salt Lake Center
Tue 06:20:37 PM 45.0303 -112.6086 333° Northwest 428 493 26,000  Level Salt Lake Center
Tue 06:21:38 PM 45.1225 -112.7075 323° Northwest 411 473 26,000  Level Salt Lake Center
Tue 06:22:40 PM 45.2114 -112.8086 321° Northwest 407 468 26,000  Level Salt Lake Center
Tue 06:23:42 PM 45.3250 -112.8539 344° North 413 475 26,000  Level Salt Lake Center
Tue 06:24:44 PM 45.4447 -112.8792 352° North 421 484 26,000  Level Salt Lake Center
Tue 06:25:45 PM 45.5583 -112.9206 346° North 418 481 26,000  Level Salt Lake Center
Tue 06:26:47 PM 45.6586 -112.9956 332° Northwest 405 466 26,000  Level Salt Lake Center
Tue 06:27:49 PM 45.7572 -113.0814 329° Northwest 405 466 26,000  Level Salt Lake Center
Tue 06:28:50 PM 45.8575 -113.1628 331° Northwest 403 464 26,000 -634 Level Salt Lake Center
Tue 06:29:52 PM 45.9586 -113.2439 331° Northwest 409 471 24,700 -1,742 Descending Salt Lake Center
Tue 06:30:54 PM 46.0675 -113.3167 335° Northwest 396 456 22,400 -2,274 Descending Salt Lake Center
Tue 06:31:56 PM 46.1608 -113.3781 336° Northwest 366 421 20,000 -2,732 Descending Salt Lake Center
Tue 06:32:57 PM 46.2436 -113.4608 325° Northwest 365 420 16,800 -2,341 Descending Salt Lake Center
Tue 06:33:59 PM 46.3147 -113.5572 317° Northwest 351 404 15,200 -823 Descending Salt Lake Center
Tue 06:35:01 PM 46.3856 -113.6431 320° Northwest 311 358 15,100 -488 Descending Salt Lake Center
Tue 06:36:02 PM 46.4369 -113.7114 318° Northwest 256 295 14,200 -1,707 Descending Salt Lake Center
Tue 06:37:04 PM 46.4894 -113.7856 316° Northwest 260 299 11,600 -2,226 Descending Salt Lake Center
Tue 06:38:06 PM 46.5586 -113.8281 337° Northwest 255 293 9,600 -1,161 Descending Salt Lake Center
Tue 06:39:08 PM 46.6067 -113.9017 314° West 251 289 9,200 -339 Descending Salt Lake Center
Tue 06:40:10 PM 46.6658 -113.9681 322° Northwest 251 289 8,900 -829 Descending Salt Lake Center
Tue 06:41:11 PM 46.7228 -114.0136 331° Northwest 240 276 7,500 -1,366 Descending Salt Lake Center
Tue 06:42:13 PM 46.7794 -114.0392 343° North 219 252 6,100 -1,161 Descending Salt Lake Center
Tue 06:43:15 PM 46.8375 -114.0197 13° North 201 231 5,100 -1,016 Descending Salt Lake Center
Tue 06:44:17 PM 46.8814 -114.0308 350° North 164 189 4,000 -927 Descending Salt Lake Center
Tue 06:45:18 PM 46.9086 -114.0792 310° West 143 165 3,200 -787 Descending Salt Lake Center

Login

Don't have an account? Register now (free) for customized features, flight alerts, and more!